sensor_id;sensor_type;location;lat;lon;timestamp;P1;durP1;ratioP1;P2;durP2;ratioP2
36817;SDS011;22761;51.542;16.450;2022-07-23T00:00:19;6.35;;;4.72;;
36817;SDS011;22761;51.542;16.450;2022-07-23T00:02:48;6.30;;;4.85;;
36817;SDS011;22761;51.542;16.450;2022-07-23T00:05:15;5.17;;;4.67;;
36817;SDS011;22761;51.542;16.450;2022-07-23T00:07:43;6.55;;;5.47;;
36817;SDS011;22761;51.542;16.450;2022-07-23T00:10:10;7.75;;;5.15;;
36817;SDS011;22761;51.542;16.450;2022-07-23T00:12:37;8.13;;;5.00;;
36817;SDS011;22761;51.542;16.450;2022-07-23T00:15:05;5.55;;;5.05;;
36817;SDS011;22761;51.542;16.450;2022-07-23T00:17:34;6.08;;;5.12;;
36817;SDS011;22761;51.542;16.450;2022-07-23T00:20:01;5.72;;;5.22;;
36817;SDS011;22761;51.542;16.450;2022-07-23T00:22:28;5.92;;;5.42;;
36817;SDS011;22761;51.542;16.450;2022-07-23T00:24:55;5.85;;;5.08;;
36817;SDS011;22761;51.542;16.450;2022-07-23T00:27:23;7.83;;;5.37;;
36817;SDS011;22761;51.542;16.450;2022-07-23T00:29:51;6.03;;;5.42;;
36817;SDS011;22761;51.542;16.450;2022-07-23T00:32:18;7.30;;;5.65;;
36817;SDS011;22761;51.542;16.450;2022-07-23T00:34:44;7.03;;;5.65;;
36817;SDS011;22761;51.542;16.450;2022-07-23T00:37:11;5.60;;;4.95;;
36817;SDS011;22761;51.542;16.450;2022-07-23T00:39:38;6.15;;;5.00;;
36817;SDS011;22761;51.542;16.450;2022-07-23T00:42:06;5.70;;;5.20;;
36817;SDS011;22761;51.542;16.450;2022-07-23T00:44:32;6.83;;;5.12;;
36817;SDS011;22761;51.542;16.450;2022-07-23T00:46:59;5.90;;;5.35;;
36817;SDS011;22761;51.542;16.450;2022-07-23T00:49:27;6.12;;;5.60;;
36817;SDS011;22761;51.542;16.450;2022-07-23T00:51:56;6.17;;;5.58;;
36817;SDS011;22761;51.542;16.450;2022-07-23T00:54:26;5.75;;;5.20;;
36817;SDS011;22761;51.542;16.450;2022-07-23T00:56:54;7.30;;;5.53;;
36817;SDS011;22761;51.542;16.450;2022-07-23T00:59:21;5.65;;;5.15;;
36817;SDS011;22761;51.542;16.450;2022-07-23T01:01:49;5.92;;;5.35;;
36817;SDS011;22761;51.542;16.450;2022-07-23T01:04:16;6.42;;;5.45;;
36817;SDS011;22761;51.542;16.450;2022-07-23T01:06:44;7.65;;;5.80;;
36817;SDS011;22761;51.542;16.450;2022-07-23T01:09:11;5.62;;;5.03;;
36817;SDS011;22761;51.542;16.450;2022-07-23T01:11:39;8.15;;;6.35;;
36817;SDS011;22761;51.542;16.450;2022-07-23T01:14:14;6.25;;;5.65;;
36817;SDS011;22761;51.542;16.450;2022-07-23T01:16:40;7.25;;;6.35;;
36817;SDS011;22761;51.542;16.450;2022-07-23T01:19:08;5.97;;;5.37;;
36817;SDS011;22761;51.542;16.450;2022-07-23T01:21:45;6.50;;;5.78;;
36817;SDS011;22761;51.542;16.450;2022-07-23T01:24:10;6.83;;;5.60;;
36817;SDS011;22761;51.542;16.450;2022-07-23T01:26:41;6.08;;;5.47;;
36817;SDS011;22761;51.542;16.450;2022-07-23T01:31:38;6.83;;;5.97;;
36817;SDS011;22761;51.542;16.450;2022-07-23T01:34:05;6.25;;;5.65;;
36817;SDS011;22761;51.542;16.450;2022-07-23T01:36:34;7.35;;;5.90;;
36817;SDS011;22761;51.542;16.450;2022-07-23T01:39:03;6.35;;;5.75;;
36817;SDS011;22761;51.542;16.450;2022-07-23T01:41:31;7.55;;;5.97;;
36817;SDS011;22761;51.542;16.450;2022-07-23T01:43:59;6.37;;;5.78;;
36817;SDS011;22761;51.542;16.450;2022-07-23T01:46:26;6.67;;;5.72;;
36817;SDS011;22761;51.542;16.450;2022-07-23T01:48:53;7.53;;;6.60;;
36817;SDS011;22761;51.542;16.450;2022-07-23T01:51:39;6.80;;;6.10;;
36817;SDS011;22761;51.542;16.450;2022-07-23T01:54:09;8.55;;;6.35;;
36817;SDS011;22761;51.542;16.450;2022-07-23T01:56:37;6.78;;;6.10;;
36817;SDS011;22761;51.542;16.450;2022-07-23T01:59:04;6.55;;;5.95;;
36817;SDS011;22761;51.542;16.450;2022-07-23T02:01:31;7.08;;;6.20;;
36817;SDS011;22761;51.542;16.450;2022-07-23T02:03:59;10.32;;;5.85;;
36817;SDS011;22761;51.542;16.450;2022-07-23T02:06:26;7.17;;;6.45;;
36817;SDS011;22761;51.542;16.450;2022-07-23T02:08:53;7.10;;;6.40;;
36817;SDS011;22761;51.542;16.450;2022-07-23T02:11:21;6.53;;;5.83;;
36817;SDS011;22761;51.542;16.450;2022-07-23T02:13:48;7.45;;;6.03;;
36817;SDS011;22761;51.542;16.450;2022-07-23T02:16:15;9.35;;;6.60;;
36817;SDS011;22761;51.542;16.450;2022-07-23T02:18:43;8.23;;;6.50;;
36817;SDS011;22761;51.542;16.450;2022-07-23T02:21:10;7.62;;;6.28;;
36817;SDS011;22761;51.542;16.450;2022-07-23T02:23:37;8.08;;;6.67;;
36817;SDS011;22761;51.542;16.450;2022-07-23T02:26:04;6.58;;;5.90;;
36817;SDS011;22761;51.542;16.450;2022-07-23T02:28:32;8.53;;;6.30;;
36817;SDS011;22761;51.542;16.450;2022-07-23T02:30:59;6.78;;;6.10;;
36817;SDS011;22761;51.542;16.450;2022-07-23T02:33:27;7.53;;;6.72;;
36817;SDS011;22761;51.542;16.450;2022-07-23T02:35:54;7.53;;;6.62;;
36817;SDS011;22761;51.542;16.450;2022-07-23T02:38:22;8.70;;;6.72;;
36817;SDS011;22761;51.542;16.450;2022-07-23T02:40:49;7.87;;;7.10;;
36817;SDS011;22761;51.542;16.450;2022-07-23T02:43:17;7.05;;;6.45;;
36817;SDS011;22761;51.542;16.450;2022-07-23T02:45:45;7.28;;;6.53;;
36817;SDS011;22761;51.542;16.450;2022-07-23T02:48:12;10.23;;;7.08;;
36817;SDS011;22761;51.542;16.450;2022-07-23T02:50:41;7.87;;;7.08;;
36817;SDS011;22761;51.542;16.450;2022-07-23T02:53:10;7.78;;;7.03;;
36817;SDS011;22761;51.542;16.450;2022-07-23T02:55:38;7.90;;;6.80;;
36817;SDS011;22761;51.542;16.450;2022-07-23T02:58:05;8.08;;;6.72;;
36817;SDS011;22761;51.542;16.450;2022-07-23T03:00:32;7.40;;;6.70;;
36817;SDS011;22761;51.542;16.450;2022-07-23T03:02:59;7.05;;;6.35;;
36817;SDS011;22761;51.542;16.450;2022-07-23T03:05:26;10.40;;;6.70;;
36817;SDS011;22761;51.542;16.450;2022-07-23T03:07:53;8.35;;;7.42;;
36817;SDS011;22761;51.542;16.450;2022-07-23T03:10:20;7.80;;;6.78;;
36817;SDS011;22761;51.542;16.450;2022-07-23T03:12:47;7.97;;;7.22;;
36817;SDS011;22761;51.542;16.450;2022-07-23T03:15:14;7.72;;;7.00;;
36817;SDS011;22761;51.542;16.450;2022-07-23T03:17:41;9.95;;;7.03;;
36817;SDS011;22761;51.542;16.450;2022-07-23T03:20:08;8.20;;;7.20;;
36817;SDS011;22761;51.542;16.450;2022-07-23T03:22:38;9.90;;;6.62;;
36817;SDS011;22761;51.542;16.450;2022-07-23T03:25:05;7.15;;;6.45;;
36817;SDS011;22761;51.542;16.450;2022-07-23T03:27:34;7.08;;;6.40;;
36817;SDS011;22761;51.542;16.450;2022-07-23T03:30:02;11.25;;;7.10;;
36817;SDS011;22761;51.542;16.450;2022-07-23T03:32:29;9.35;;;7.37;;
36817;SDS011;22761;51.542;16.450;2022-07-23T03:34:57;7.58;;;6.87;;
36817;SDS011;22761;51.542;16.450;2022-07-23T03:37:25;8.50;;;7.20;;
36817;SDS011;22761;51.542;16.450;2022-07-23T03:39:52;8.38;;;7.58;;
36817;SDS011;22761;51.542;16.450;2022-07-23T03:42:19;8.15;;;7.35;;
36817;SDS011;22761;51.542;16.450;2022-07-23T03:44:46;8.23;;;7.37;;
36817;SDS011;22761;51.542;16.450;2022-07-23T03:47:13;7.80;;;7.00;;
36817;SDS011;22761;51.542;16.450;2022-07-23T03:49:43;9.43;;;7.37;;
36817;SDS011;22761;51.542;16.450;2022-07-23T03:52:10;9.83;;;7.75;;
36817;SDS011;22761;51.542;16.450;2022-07-23T03:54:37;8.33;;;7.12;;
36817;SDS011;22761;51.542;16.450;2022-07-23T03:57:05;8.70;;;7.90;;
36817;SDS011;22761;51.542;16.450;2022-07-23T03:59:31;8.30;;;7.50;;
36817;SDS011;22761;51.542;16.450;2022-07-23T04:01:59;8.75;;;7.85;;
36817;SDS011;22761;51.542;16.450;2022-07-23T04:04:25;8.50;;;7.70;;
36817;SDS011;22761;51.542;16.450;2022-07-23T04:06:52;12.45;;;8.08;;
36817;SDS011;22761;51.542;16.450;2022-07-23T04:09:19;9.38;;;8.35;;
36817;SDS011;22761;51.542;16.450;2022-07-23T04:11:47;8.38;;;7.58;;
36817;SDS011;22761;51.542;16.450;2022-07-23T04:14:14;8.43;;;7.62;;
36817;SDS011;22761;51.542;16.450;2022-07-23T04:16:41;8.75;;;7.95;;
36817;SDS011;22761;51.542;16.450;2022-07-23T04:19:09;9.03;;;8.08;;
36817;SDS011;22761;51.542;16.450;2022-07-23T04:21:38;8.75;;;7.95;;
36817;SDS011;22761;51.542;16.450;2022-07-23T04:24:05;8.40;;;7.60;;
36817;SDS011;22761;51.542;16.450;2022-07-23T04:26:33;9.20;;;8.33;;
36817;SDS011;22761;51.542;16.450;2022-07-23T04:29:00;9.43;;;7.83;;
36817;SDS011;22761;51.542;16.450;2022-07-23T04:31:26;9.43;;;8.45;;
36817;SDS011;22761;51.542;16.450;2022-07-23T04:33:54;9.25;;;7.90;;
36817;SDS011;22761;51.542;16.450;2022-07-23T04:36:21;9.05;;;8.15;;
36817;SDS011;22761;51.542;16.450;2022-07-23T04:38:48;9.10;;;8.08;;
36817;SDS011;22761;51.542;16.450;2022-07-23T04:41:15;8.70;;;7.80;;
36817;SDS011;22761;51.542;16.450;2022-07-23T04:43:45;9.65;;;7.55;;
36817;SDS011;22761;51.542;16.450;2022-07-23T04:48:41;10.65;;;7.87;;
36817;SDS011;22761;51.542;16.450;2022-07-23T04:51:09;8.75;;;7.87;;
36817;SDS011;22761;51.542;16.450;2022-07-23T04:53:37;9.55;;;7.95;;
36817;SDS011;22761;51.542;16.450;2022-07-23T04:56:06;9.33;;;8.43;;
36817;SDS011;22761;51.542;16.450;2022-07-23T04:58:33;9.08;;;8.15;;
36817;SDS011;22761;51.542;16.450;2022-07-23T05:01:00;8.83;;;8.03;;
36817;SDS011;22761;51.542;16.450;2022-07-23T05:03:27;9.70;;;8.13;;
36817;SDS011;22761;51.542;16.450;2022-07-23T05:05:54;10.03;;;7.80;;
36817;SDS011;22761;51.542;16.450;2022-07-23T05:08:21;9.63;;;8.48;;
36817;SDS011;22761;51.542;16.450;2022-07-23T05:10:53;9.93;;;8.80;;
36817;SDS011;22761;51.542;16.450;2022-07-23T05:13:20;10.18;;;8.95;;
36817;SDS011;22761;51.542;16.450;2022-07-23T05:15:49;10.30;;;8.98;;
36817;SDS011;22761;51.542;16.450;2022-07-23T05:18:16;9.98;;;8.98;;
36817;SDS011;22761;51.542;16.450;2022-07-23T05:20:43;9.20;;;8.40;;
36817;SDS011;22761;51.542;16.450;2022-07-23T05:23:12;9.93;;;8.93;;
36817;SDS011;22761;51.542;16.450;2022-07-23T05:25:40;9.88;;;8.95;;
36817;SDS011;22761;51.542;16.450;2022-07-23T05:28:07;9.68;;;8.78;;
36817;SDS011;22761;51.542;16.450;2022-07-23T05:30:34;11.38;;;9.38;;
36817;SDS011;22761;51.542;16.450;2022-07-23T05:33:03;10.15;;;9.15;;
36817;SDS011;22761;51.542;16.450;2022-07-23T05:35:30;11.33;;;10.32;;
36817;SDS011;22761;51.542;16.450;2022-07-23T05:38:05;11.33;;;10.10;;
36817;SDS011;22761;51.542;16.450;2022-07-23T05:40:33;12.70;;;9.70;;
36817;SDS011;22761;51.542;16.450;2022-07-23T05:43:00;11.53;;;9.73;;
36817;SDS011;22761;51.542;16.450;2022-07-23T05:45:27;10.30;;;9.33;;
36817;SDS011;22761;51.542;16.450;2022-07-23T05:47:54;12.47;;;9.75;;
36817;SDS011;22761;51.542;16.450;2022-07-23T05:50:23;11.33;;;10.10;;
36817;SDS011;22761;51.542;16.450;2022-07-23T05:52:52;9.93;;;8.93;;
36817;SDS011;22761;51.542;16.450;2022-07-23T05:55:25;11.65;;;9.35;;
36817;SDS011;22761;51.542;16.450;2022-07-23T05:57:55;12.68;;;9.78;;
36817;SDS011;22761;51.542;16.450;2022-07-23T06:00:23;10.70;;;9.60;;
36817;SDS011;22761;51.542;16.450;2022-07-23T06:02:51;9.08;;;8.20;;
36817;SDS011;22761;51.542;16.450;2022-07-23T06:05:18;11.20;;;8.78;;
36817;SDS011;22761;51.542;16.450;2022-07-23T06:07:45;9.93;;;8.50;;
36817;SDS011;22761;51.542;16.450;2022-07-23T06:10:13;9.13;;;8.18;;
36817;SDS011;22761;51.542;16.450;2022-07-23T06:12:40;9.23;;;8.33;;
36817;SDS011;22761;51.542;16.450;2022-07-23T06:15:08;11.25;;;8.30;;
36817;SDS011;22761;51.542;16.450;2022-07-23T06:17:36;8.77;;;7.87;;
36817;SDS011;22761;51.542;16.450;2022-07-23T06:20:05;8.83;;;7.93;;
36817;SDS011;22761;51.542;16.450;2022-07-23T06:22:36;9.03;;;8.13;;
36817;SDS011;22761;51.542;16.450;2022-07-23T06:25:03;8.85;;;8.05;;
36817;SDS011;22761;51.542;16.450;2022-07-23T06:27:32;8.38;;;7.53;;
36817;SDS011;22761;51.542;16.450;2022-07-23T06:29:59;9.13;;;7.47;;
36817;SDS011;22761;51.542;16.450;2022-07-23T06:32:27;9.18;;;7.90;;
36817;SDS011;22761;51.542;16.450;2022-07-23T06:34:54;8.28;;;7.47;;
36817;SDS011;22761;51.542;16.450;2022-07-23T06:37:21;8.50;;;7.67;;
36817;SDS011;22761;51.542;16.450;2022-07-23T06:39:48;7.50;;;6.78;;
36817;SDS011;22761;51.542;16.450;2022-07-23T06:42:15;8.58;;;7.65;;
36817;SDS011;22761;51.542;16.450;2022-07-23T06:44:43;8.10;;;7.28;;
36817;SDS011;22761;51.542;16.450;2022-07-23T06:47:11;10.23;;;7.90;;
36817;SDS011;22761;51.542;16.450;2022-07-23T06:49:37;8.98;;;8.18;;
36817;SDS011;22761;51.542;16.450;2022-07-23T06:52:07;8.98;;;8.05;;
36817;SDS011;22761;51.542;16.450;2022-07-23T06:54:34;8.48;;;6.87;;
36817;SDS011;22761;51.542;16.450;2022-07-23T06:57:02;8.60;;;7.70;;
36817;SDS011;22761;51.542;16.450;2022-07-23T06:59:29;7.95;;;7.22;;
36817;SDS011;22761;51.542;16.450;2022-07-23T07:01:56;8.13;;;7.37;;
36817;SDS011;22761;51.542;16.450;2022-07-23T07:04:24;9.45;;;6.58;;
36817;SDS011;22761;51.542;16.450;2022-07-23T07:06:50;7.47;;;6.83;;
36817;SDS011;22761;51.542;16.450;2022-07-23T07:09:17;8.23;;;7.22;;
36817;SDS011;22761;51.542;16.450;2022-07-23T07:11:44;9.03;;;7.12;;
36817;SDS011;22761;51.542;16.450;2022-07-23T07:14:11;8.18;;;7.40;;
36817;SDS011;22761;51.542;16.450;2022-07-23T07:16:38;9.38;;;6.70;;
36817;SDS011;22761;51.542;16.450;2022-07-23T07:19:05;8.50;;;7.10;;
36817;SDS011;22761;51.542;16.450;2022-07-23T07:21:32;7.58;;;6.87;;
36817;SDS011;22761;51.542;16.450;2022-07-23T07:23:59;9.13;;;6.92;;
36817;SDS011;22761;51.542;16.450;2022-07-23T07:26:27;8.08;;;7.00;;
36817;SDS011;22761;51.542;16.450;2022-07-23T07:28:54;8.03;;;6.92;;
36817;SDS011;22761;51.542;16.450;2022-07-23T07:31:21;8.58;;;7.00;;
36817;SDS011;22761;51.542;16.450;2022-07-23T07:33:47;7.95;;;6.72;;
36817;SDS011;22761;51.542;16.450;2022-07-23T07:36:14;7.80;;;7.00;;
36817;SDS011;22761;51.542;16.450;2022-07-23T07:38:41;9.18;;;7.12;;
36817;SDS011;22761;51.542;16.450;2022-07-23T07:41:08;6.95;;;6.25;;
36817;SDS011;22761;51.542;16.450;2022-07-23T07:43:36;7.15;;;6.42;;
36817;SDS011;22761;51.542;16.450;2022-07-23T07:46:05;7.17;;;6.58;;
36817;SDS011;22761;51.542;16.450;2022-07-23T07:48:34;12.90;;;6.90;;
36817;SDS011;22761;51.542;16.450;2022-07-23T07:51:01;7.40;;;6.72;;
36817;SDS011;22761;51.542;16.450;2022-07-23T07:53:28;9.70;;;7.20;;
36817;SDS011;22761;51.542;16.450;2022-07-23T07:55:55;12.63;;;7.37;;
36817;SDS011;22761;51.542;16.450;2022-07-23T07:58:22;8.30;;;6.65;;
36817;SDS011;22761;51.542;16.450;2022-07-23T08:00:49;13.35;;;7.45;;
36817;SDS011;22761;51.542;16.450;2022-07-23T08:03:17;9.88;;;7.28;;
36817;SDS011;22761;51.542;16.450;2022-07-23T08:05:44;8.13;;;7.15;;
36817;SDS011;22761;51.542;16.450;2022-07-23T08:08:11;177.95;;;23.75;;
36817;SDS011;22761;51.542;16.450;2022-07-23T08:10:40;12.53;;;7.95;;
36817;SDS011;22761;51.542;16.450;2022-07-23T08:13:07;16.75;;;9.20;;
36817;SDS011;22761;51.542;16.450;2022-07-23T08:15:41;17.52;;;9.55;;
36817;SDS011;22761;51.542;16.450;2022-07-23T08:18:09;9.55;;;8.63;;
36817;SDS011;22761;51.542;16.450;2022-07-23T08:20:36;10.18;;;9.10;;
36817;SDS011;22761;51.542;16.450;2022-07-23T08:23:06;11.45;;;9.05;;
36817;SDS011;22761;51.542;16.450;2022-07-23T08:25:36;11.22;;;10.03;;
36817;SDS011;22761;51.542;16.450;2022-07-23T08:28:07;11.88;;;10.68;;
36817;SDS011;22761;51.542;16.450;2022-07-23T08:30:37;10.40;;;9.30;;
36817;SDS011;22761;51.542;16.450;2022-07-23T08:33:07;12.45;;;9.38;;
36817;SDS011;22761;51.542;16.450;2022-07-23T08:35:38;11.05;;;9.95;;
36817;SDS011;22761;51.542;16.450;2022-07-23T08:38:09;13.03;;;10.80;;
36817;SDS011;22761;51.542;16.450;2022-07-23T08:43:15;14.05;;;10.85;;
36817;SDS011;22761;51.542;16.450;2022-07-23T08:45:44;12.25;;;10.88;;
36817;SDS011;22761;51.542;16.450;2022-07-23T08:48:16;12.05;;;10.85;;
36817;SDS011;22761;51.542;16.450;2022-07-23T08:50:56;11.97;;;10.78;;
36817;SDS011;22761;51.542;16.450;2022-07-23T08:53:22;11.50;;;10.20;;
36817;SDS011;22761;51.542;16.450;2022-07-23T08:55:51;12.10;;;9.85;;
36817;SDS011;22761;51.542;16.450;2022-07-23T08:58:21;11.57;;;10.25;;
36817;SDS011;22761;51.542;16.450;2022-07-23T09:00:50;13.25;;;11.10;;
36817;SDS011;22761;51.542;16.450;2022-07-23T09:05:57;11.10;;;9.93;;
36817;SDS011;22761;51.542;16.450;2022-07-23T09:11:08;13.15;;;10.58;;
36817;SDS011;22761;51.542;16.450;2022-07-23T09:13:52;14.23;;;11.38;;
36817;SDS011;22761;51.542;16.450;2022-07-23T09:16:23;11.65;;;10.50;;
36817;SDS011;22761;51.542;16.450;2022-07-23T09:18:56;11.03;;;10.03;;
36817;SDS011;22761;51.542;16.450;2022-07-23T09:21:35;12.55;;;10.10;;
36817;SDS011;22761;51.542;16.450;2022-07-23T09:24:10;11.28;;;9.90;;
36817;SDS011;22761;51.542;16.450;2022-07-23T09:26:41;11.30;;;10.20;;
36817;SDS011;22761;51.542;16.450;2022-07-23T09:29:17;11.78;;;10.58;;
36817;SDS011;22761;51.542;16.450;2022-07-23T09:31:54;12.03;;;10.65;;
36817;SDS011;22761;51.542;16.450;2022-07-23T09:34:30;11.65;;;10.10;;
36817;SDS011;22761;51.542;16.450;2022-07-23T09:39:44;15.23;;;10.63;;
36817;SDS011;22761;51.542;16.450;2022-07-23T09:42:15;11.78;;;10.65;;
36817;SDS011;22761;51.542;16.450;2022-07-23T09:44:48;11.30;;;10.28;;
36817;SDS011;22761;51.542;16.450;2022-07-23T09:47:21;10.53;;;9.58;;
36817;SDS011;22761;51.542;16.450;2022-07-23T09:52:45;11.05;;;10.00;;
36817;SDS011;22761;51.542;16.450;2022-07-23T09:55:16;11.43;;;10.25;;
36817;SDS011;22761;51.542;16.450;2022-07-23T10:02:41;10.72;;;9.78;;
36817;SDS011;22761;51.542;16.450;2022-07-23T10:05:29;11.90;;;10.48;;
36817;SDS011;22761;51.542;16.450;2022-07-23T10:08:14;11.20;;;10.10;;
36817;SDS011;22761;51.542;16.450;2022-07-23T10:10:53;11.93;;;10.72;;
36817;SDS011;22761;51.542;16.450;2022-07-23T10:13:41;11.12;;;10.13;;
36817;SDS011;22761;51.542;16.450;2022-07-23T10:16:27;12.28;;;10.93;;
36817;SDS011;22761;51.542;16.450;2022-07-23T10:18:54;14.47;;;11.10;;
36817;SDS011;22761;51.542;16.450;2022-07-23T10:21:24;12.18;;;10.90;;
36817;SDS011;22761;51.542;16.450;2022-07-23T10:36:19;11.90;;;10.70;;
36817;SDS011;22761;51.542;16.450;2022-07-23T10:38:58;13.58;;;11.28;;
36817;SDS011;22761;51.542;16.450;2022-07-23T10:44:08;11.50;;;10.32;;
36817;SDS011;22761;51.542;16.450;2022-07-23T10:46:55;10.82;;;9.73;;
36817;SDS011;22761;51.542;16.450;2022-07-23T10:49:38;12.05;;;10.95;;
36817;SDS011;22761;51.542;16.450;2022-07-23T10:57:25;11.90;;;10.72;;
36817;SDS011;22761;51.542;16.450;2022-07-23T11:02:37;12.15;;;11.03;;
36817;SDS011;22761;51.542;16.450;2022-07-23T11:05:08;13.30;;;11.75;;
36817;SDS011;22761;51.542;16.450;2022-07-23T11:10:35;12.73;;;11.53;;
36817;SDS011;22761;51.542;16.450;2022-07-23T11:16:22;12.75;;;11.45;;
36817;SDS011;22761;51.542;16.450;2022-07-23T11:18:55;13.78;;;12.43;;
36817;SDS011;22761;51.542;16.450;2022-07-23T11:24:07;12.30;;;11.10;;
36817;SDS011;22761;51.542;16.450;2022-07-23T11:34:49;13.93;;;12.55;;
36817;SDS011;22761;51.542;16.450;2022-07-23T11:37:35;12.63;;;11.50;;
36817;SDS011;22761;51.542;16.450;2022-07-23T11:40:06;11.85;;;10.75;;
36817;SDS011;22761;51.542;16.450;2022-07-23T11:42:36;12.28;;;11.15;;
36817;SDS011;22761;51.542;16.450;2022-07-23T11:45:07;11.15;;;10.05;;
36817;SDS011;22761;51.542;16.450;2022-07-23T11:47:35;11.30;;;10.30;;
36817;SDS011;22761;51.542;16.450;2022-07-23T11:50:03;11.28;;;10.18;;
36817;SDS011;22761;51.542;16.450;2022-07-23T11:52:32;10.85;;;9.80;;
36817;SDS011;22761;51.542;16.450;2022-07-23T11:55:01;11.10;;;9.35;;
36817;SDS011;22761;51.542;16.450;2022-07-23T11:57:33;10.98;;;9.23;;
36817;SDS011;22761;51.542;16.450;2022-07-23T12:00:11;10.13;;;9.05;;
36817;SDS011;22761;51.542;16.450;2022-07-23T12:02:42;9.68;;;8.78;;
36817;SDS011;22761;51.542;16.450;2022-07-23T12:05:21;13.08;;;8.80;;
36817;SDS011;22761;51.542;16.450;2022-07-23T12:07:47;9.23;;;8.30;;
36817;SDS011;22761;51.542;16.450;2022-07-23T12:10:18;10.23;;;9.23;;
36817;SDS011;22761;51.542;16.450;2022-07-23T12:13:04;9.83;;;8.33;;
36817;SDS011;22761;51.542;16.450;2022-07-23T12:15:41;8.63;;;7.83;;
36817;SDS011;22761;51.542;16.450;2022-07-23T12:18:12;9.03;;;8.13;;
36817;SDS011;22761;51.542;16.450;2022-07-23T12:20:43;8.73;;;7.83;;
36817;SDS011;22761;51.542;16.450;2022-07-23T12:23:14;9.68;;;8.25;;
36817;SDS011;22761;51.542;16.450;2022-07-23T12:25:45;8.08;;;7.35;;
36817;SDS011;22761;51.542;16.450;2022-07-23T12:28:14;8.35;;;7.55;;
36817;SDS011;22761;51.542;16.450;2022-07-23T12:30:48;14.47;;;8.05;;
36817;SDS011;22761;51.542;16.450;2022-07-23T12:33:24;9.80;;;8.80;;
36817;SDS011;22761;51.542;16.450;2022-07-23T12:35:55;9.15;;;8.25;;
36817;SDS011;22761;51.542;16.450;2022-07-23T12:38:26;10.23;;;9.23;;
36817;SDS011;22761;51.542;16.450;2022-07-23T12:40:59;11.22;;;7.90;;
36817;SDS011;22761;51.542;16.450;2022-07-23T12:43:30;9.25;;;8.53;;
36817;SDS011;22761;51.542;16.450;2022-07-23T12:46:09;10.75;;;8.80;;
36817;SDS011;22761;51.542;16.450;2022-07-23T12:48:50;8.60;;;7.80;;
36817;SDS011;22761;51.542;16.450;2022-07-23T12:53:56;12.07;;;10.38;;
36817;SDS011;22761;51.542;16.450;2022-07-23T12:56:37;11.38;;;10.28;;
36817;SDS011;22761;51.542;16.450;2022-07-23T12:59:09;11.48;;;10.25;;
36817;SDS011;22761;51.542;16.450;2022-07-23T13:01:43;12.33;;;11.10;;
36817;SDS011;22761;51.542;16.450;2022-07-23T13:04:17;10.48;;;9.58;;
36817;SDS011;22761;51.542;16.450;2022-07-23T13:06:52;11.88;;;9.63;;
36817;SDS011;22761;51.542;16.450;2022-07-23T13:09:25;11.65;;;10.65;;
36817;SDS011;22761;51.542;16.450;2022-07-23T13:11:55;12.53;;;11.33;;
36817;SDS011;22761;51.542;16.450;2022-07-23T13:14:23;12.25;;;11.12;;
36817;SDS011;22761;51.542;16.450;2022-07-23T13:16:52;11.55;;;10.45;;
36817;SDS011;22761;51.542;16.450;2022-07-23T13:19:21;11.78;;;10.60;;
36817;SDS011;22761;51.542;16.450;2022-07-23T13:21:48;10.90;;;10.00;;
36817;SDS011;22761;51.542;16.450;2022-07-23T13:24:15;11.55;;;10.05;;
36817;SDS011;22761;51.542;16.450;2022-07-23T13:26:42;9.13;;;8.35;;
36817;SDS011;22761;51.542;16.450;2022-07-23T13:29:09;9.90;;;9.05;;
36817;SDS011;22761;51.542;16.450;2022-07-23T13:31:37;11.48;;;10.32;;
36817;SDS011;22761;51.542;16.450;2022-07-23T13:34:05;9.73;;;8.93;;
36817;SDS011;22761;51.542;16.450;2022-07-23T13:36:33;11.45;;;10.25;;
36817;SDS011;22761;51.542;16.450;2022-07-23T13:39:03;10.50;;;9.58;;
36817;SDS011;22761;51.542;16.450;2022-07-23T13:41:30;10.60;;;9.68;;
36817;SDS011;22761;51.542;16.450;2022-07-23T13:43:57;10.55;;;9.55;;
36817;SDS011;22761;51.542;16.450;2022-07-23T13:46:25;10.25;;;9.25;;
36817;SDS011;22761;51.542;16.450;2022-07-23T13:48:52;9.40;;;8.50;;
36817;SDS011;22761;51.542;16.450;2022-07-23T13:51:19;10.70;;;9.70;;
36817;SDS011;22761;51.542;16.450;2022-07-23T13:53:47;10.43;;;9.43;;
36817;SDS011;22761;51.542;16.450;2022-07-23T13:56:14;9.78;;;8.98;;
36817;SDS011;22761;51.542;16.450;2022-07-23T13:58:41;9.20;;;8.25;;
36817;SDS011;22761;51.542;16.450;2022-07-23T14:01:08;9.78;;;8.90;;
36817;SDS011;22761;51.542;16.450;2022-07-23T14:03:36;10.45;;;9.33;;
36817;SDS011;22761;51.542;16.450;2022-07-23T14:06:03;9.70;;;8.65;;
36817;SDS011;22761;51.542;16.450;2022-07-23T14:08:31;9.83;;;9.03;;
36817;SDS011;22761;51.542;16.450;2022-07-23T14:10:58;10.30;;;9.30;;
36817;SDS011;22761;51.542;16.450;2022-07-23T14:13:27;9.78;;;8.53;;
36817;SDS011;22761;51.542;16.450;2022-07-23T14:15:55;8.13;;;7.33;;
36817;SDS011;22761;51.542;16.450;2022-07-23T14:18:23;8.83;;;8.03;;
36817;SDS011;22761;51.542;16.450;2022-07-23T14:20:50;8.43;;;7.62;;
36817;SDS011;22761;51.542;16.450;2022-07-23T14:23:17;8.90;;;8.10;;
36817;SDS011;22761;51.542;16.450;2022-07-23T14:25:44;8.85;;;8.03;;
36817;SDS011;22761;51.542;16.450;2022-07-23T14:28:11;8.88;;;7.80;;
36817;SDS011;22761;51.542;16.450;2022-07-23T14:30:38;8.35;;;7.55;;
36817;SDS011;22761;51.542;16.450;2022-07-23T14:33:05;8.13;;;7.33;;
36817;SDS011;22761;51.542;16.450;2022-07-23T14:35:32;7.50;;;6.78;;
36817;SDS011;22761;51.542;16.450;2022-07-23T14:37:59;9.88;;;7.42;;
36817;SDS011;22761;51.542;16.450;2022-07-23T14:40:26;8.25;;;6.95;;
36817;SDS011;22761;51.542;16.450;2022-07-23T14:42:57;6.85;;;6.30;;
36817;SDS011;22761;51.542;16.450;2022-07-23T14:45:25;6.60;;;6.00;;
36817;SDS011;22761;51.542;16.450;2022-07-23T14:47:58;7.67;;;6.85;;
36817;SDS011;22761;51.542;16.450;2022-07-23T14:50:31;7.30;;;6.55;;
36817;SDS011;22761;51.542;16.450;2022-07-23T14:53:03;7.03;;;6.03;;
36817;SDS011;22761;51.542;16.450;2022-07-23T14:55:36;6.65;;;6.08;;
36817;SDS011;22761;51.542;16.450;2022-07-23T14:58:09;6.12;;;5.58;;
36817;SDS011;22761;51.542;16.450;2022-07-23T15:00:41;6.15;;;5.65;;
36817;SDS011;22761;51.542;16.450;2022-07-23T15:03:13;6.40;;;5.80;;
36817;SDS011;22761;51.542;16.450;2022-07-23T15:05:46;15.95;;;6.65;;
36817;SDS011;22761;51.542;16.450;2022-07-23T15:08:19;7.45;;;5.78;;
36817;SDS011;22761;51.542;16.450;2022-07-23T15:10:51;6.17;;;5.40;;
36817;SDS011;22761;51.542;16.450;2022-07-23T15:13:23;6.15;;;5.53;;
36817;SDS011;22761;51.542;16.450;2022-07-23T15:15:52;6.08;;;5.58;;
36817;SDS011;22761;51.542;16.450;2022-07-23T15:18:21;6.53;;;5.58;;
36817;SDS011;22761;51.542;16.450;2022-07-23T15:20:53;6.05;;;4.95;;
36817;SDS011;22761;51.542;16.450;2022-07-23T15:23:23;6.45;;;5.33;;
36817;SDS011;22761;51.542;16.450;2022-07-23T15:25:51;8.05;;;5.37;;
36817;SDS011;22761;51.542;16.450;2022-07-23T15:28:18;5.87;;;5.37;;
36817;SDS011;22761;51.542;16.450;2022-07-23T15:30:45;9.18;;;5.90;;
36817;SDS011;22761;51.542;16.450;2022-07-23T15:33:12;7.05;;;5.60;;
36817;SDS011;22761;51.542;16.450;2022-07-23T15:35:39;5.42;;;4.92;;
36817;SDS011;22761;51.542;16.450;2022-07-23T15:38:06;6.25;;;5.62;;
36817;SDS011;22761;51.542;16.450;2022-07-23T15:40:33;7.17;;;5.75;;
36817;SDS011;22761;51.542;16.450;2022-07-23T15:43:00;6.15;;;5.55;;
36817;SDS011;22761;51.542;16.450;2022-07-23T15:45:30;6.17;;;5.55;;